createdAt,value
2023-10-23T00:00:35.311Z,95.56
2023-10-23T00:01:35.258Z,95.56
2023-10-23T00:02:35.285Z,95.70
2023-10-23T00:03:35.397Z,95.50
2023-10-23T00:04:35.456Z,95.39
2023-10-23T00:05:35.267Z,95.19
2023-10-23T00:06:35.301Z,95.29
2023-10-23T00:07:35.182Z,95.09
2023-10-23T00:08:35.187Z,95.50
2023-10-23T00:09:35.215Z,95.03
2023-10-23T00:10:35.148Z,95.54
2023-10-23T00:11:35.142Z,95.64
2023-10-23T00:12:35.162Z,95.85
2023-10-23T00:13:35.119Z,95.75
2023-10-23T00:14:35.143Z,95.79
2023-10-23T00:15:35.138Z,96.10
2023-10-23T00:16:35.124Z,95.95
2023-10-23T00:17:35.085Z,95.64
2023-10-23T00:18:35.091Z,95.85
2023-10-23T00:19:35.053Z,96.10
2023-10-23T00:20:35.038Z,95.85
2023-10-23T00:21:35.048Z,95.85
2023-10-23T00:22:35.018Z,95.64
2023-10-23T00:23:35.009Z,96.51
2023-10-23T00:24:35.034Z,96.51
2023-10-23T00:25:34.979Z,96.46
2023-10-23T00:26:34.967Z,96.36
2023-10-23T00:27:34.967Z,96.46
2023-10-23T00:28:34.952Z,96.77
2023-10-23T00:29:34.933Z,96.77
2023-10-23T00:30:34.962Z,96.26
2023-10-23T00:31:34.973Z,96.46
2023-10-23T00:32:34.995Z,96.46
2023-10-23T00:33:34.976Z,96.42
2023-10-23T00:34:34.878Z,96.42
2023-10-23T00:35:34.865Z,96.46
2023-10-23T00:36:34.903Z,96.42
2023-10-23T00:37:34.844Z,96.31
2023-10-23T00:38:34.832Z,96.42
2023-10-23T00:39:34.862Z,96.62
2023-10-23T00:40:34.810Z,96.42
2023-10-23T00:41:34.805Z,96.31
2023-10-23T00:42:34.852Z,96.42
2023-10-23T00:43:34.777Z,96.42
2023-10-23T00:44:34.758Z,96.31
2023-10-23T00:45:34.773Z,96.42
2023-10-23T00:46:34.777Z,96.42
2023-10-23T00:47:34.770Z,96.42
2023-10-23T00:48:34.727Z,96.42
2023-10-23T00:49:34.706Z,96.42
2023-10-23T00:50:34.704Z,96.42
2023-10-23T00:51:34.734Z,96.42
2023-10-23T00:52:34.689Z,96.51
2023-10-23T00:53:34.670Z,96.42
2023-10-23T00:54:34.703Z,96.42
2023-10-23T00:55:34.646Z,96.31
2023-10-23T00:56:34.620Z,96.42
2023-10-23T00:57:34.643Z,96.31
2023-10-23T00:58:34.597Z,96.31
2023-10-23T00:59:34.585Z,96.42
2023-10-23T01:00:34.661Z,96.21
2023-10-23T01:01:34.570Z,96.72
2023-10-23T01:02:34.660Z,96.11
2023-10-23T01:03:34.564Z,96.72
2023-10-23T01:04:34.604Z,96.51
2023-10-23T01:05:34.544Z,96.51
2023-10-23T01:06:34.564Z,96.31
2023-10-23T01:07:34.508Z,96.42
2023-10-23T01:08:34.496Z,96.21
2023-10-23T01:09:34.523Z,96.51
2023-10-23T01:10:34.486Z,96.01
2023-10-23T01:11:34.491Z,95.90
2023-10-23T01:12:34.482Z,96.01
2023-10-23T01:13:34.440Z,95.60
2023-10-23T01:14:34.447Z,95.90
2023-10-23T01:15:34.433Z,95.80
2023-10-23T01:16:34.454Z,95.70
2023-10-23T01:17:34.430Z,95.90
2023-10-23T01:18:34.502Z,95.90
2023-10-23T01:19:34.408Z,95.90
2023-10-23T01:20:34.373Z,95.90
2023-10-23T01:21:34.366Z,95.90
2023-10-23T01:22:34.347Z,95.90
2023-10-23T01:23:34.352Z,95.90
2023-10-23T01:24:34.396Z,96.01
2023-10-23T01:25:34.315Z,95.80
2023-10-23T01:26:34.295Z,95.80
2023-10-23T01:27:34.315Z,95.90
2023-10-23T01:28:34.289Z,95.90
2023-10-23T01:29:34.272Z,95.80
2023-10-23T01:30:34.379Z,95.80
2023-10-23T01:31:34.287Z,96.11
2023-10-23T01:32:34.281Z,95.90
2023-10-23T01:33:34.265Z,95.80
2023-10-23T01:34:34.232Z,96.11
2023-10-23T01:35:34.193Z,95.90
2023-10-23T01:36:34.239Z,96.11
2023-10-23T01:37:34.184Z,96.11
2023-10-23T01:38:34.174Z,95.60
2023-10-23T01:39:34.197Z,95.60
2023-10-23T01:40:34.149Z,95.60
2023-10-23T01:41:34.136Z,95.70
2023-10-23T01:42:34.171Z,95.80
2023-10-23T01:43:34.097Z,95.90
2023-10-23T01:44:34.090Z,95.90
2023-10-23T01:45:34.097Z,95.90
2023-10-23T01:46:34.158Z,95.90
2023-10-23T01:47:34.132Z,95.90
2023-10-23T01:48:34.046Z,95.90
2023-10-23T01:49:34.028Z,96.01
2023-10-23T01:50:34.138Z,96.01
2023-10-23T01:51:34.071Z,95.90
2023-10-23T01:52:33.996Z,95.90
2023-10-23T01:53:33.982Z,96.01
2023-10-23T01:54:34.000Z,95.70
2023-10-23T01:55:33.967Z,96.01
2023-10-23T01:56:33.972Z,95.60
2023-10-23T01:57:33.970Z,95.60
2023-10-23T01:58:33.942Z,95.90
2023-10-23T01:59:33.925Z,95.70
2023-10-23T02:00:33.967Z,95.39
2023-10-23T02:01:33.924Z,95.80
2023-10-23T02:02:33.960Z,96.01
2023-10-23T02:03:33.989Z,95.80
2023-10-23T02:04:33.884Z,96.11
2023-10-23T02:05:33.866Z,96.01
2023-10-23T02:06:33.922Z,95.39
2023-10-23T02:07:33.829Z,95.80
2023-10-23T02:08:33.816Z,95.80
2023-10-23T02:09:33.823Z,95.80
2023-10-23T02:10:33.822Z,95.80
2023-10-23T02:11:33.775Z,96.01
2023-10-23T02:12:33.827Z,96.11
2023-10-23T02:13:33.758Z,95.60
2023-10-23T02:14:33.742Z,95.80
2023-10-23T02:15:33.815Z,96.11
2023-10-23T02:16:33.756Z,95.80
2023-10-23T02:17:33.794Z,96.11
2023-10-23T02:18:33.825Z,95.80
2023-10-23T02:19:33.725Z,95.80
2023-10-23T02:20:33.716Z,96.01
2023-10-23T02:21:33.731Z,96.01
2023-10-23T02:22:33.676Z,95.90
2023-10-23T02:23:48.843Z,96.11
2023-10-23T02:24:34.648Z,95.90
2023-10-23T02:25:33.617Z,96.01
2023-10-23T02:26:33.606Z,96.11
2023-10-23T02:27:33.653Z,96.11
2023-10-23T02:28:33.616Z,96.01
2023-10-23T02:29:33.584Z,95.60
2023-10-23T02:30:33.605Z,95.90
2023-10-23T02:31:33.596Z,95.80
2023-10-23T02:32:33.558Z,96.01
2023-10-23T02:33:33.600Z,95.60
2023-10-23T02:34:33.514Z,96.05
2023-10-23T02:35:33.503Z,95.80
2023-10-23T02:36:33.614Z,96.05
2023-10-23T02:37:33.479Z,95.64
2023-10-23T02:38:33.505Z,95.54
2023-10-23T02:39:33.601Z,95.64
2023-10-23T02:40:33.459Z,95.64
2023-10-23T02:41:33.455Z,95.95
2023-10-23T02:42:33.479Z,95.95
2023-10-23T02:43:33.436Z,95.95
2023-10-23T02:44:33.411Z,95.59
2023-10-23T02:45:33.407Z,95.85
2023-10-23T02:46:33.471Z,95.95
2023-10-23T02:47:33.411Z,95.89
2023-10-23T02:48:33.401Z,95.69
2023-10-23T02:49:33.355Z,96.00
2023-10-23T02:50:33.341Z,95.69
2023-10-23T02:51:33.361Z,95.94
2023-10-23T02:52:33.338Z,96.14
2023-10-23T02:53:33.307Z,96.14
2023-10-23T02:54:33.366Z,96.04
2023-10-23T02:55:33.285Z,95.88
2023-10-23T02:56:33.307Z,96.08
2023-10-23T02:57:33.292Z,95.88
2023-10-23T02:58:33.248Z,96.19
2023-10-23T02:59:33.242Z,96.08
2023-10-23T03:00:33.258Z,96.39
2023-10-23T03:01:33.278Z,95.88
2023-10-23T03:02:33.280Z,96.49
2023-10-23T03:03:33.327Z,96.59
2023-10-23T03:04:33.210Z,96.70
2023-10-23T03:05:33.168Z,96.49
2023-10-23T03:06:33.239Z,96.70
2023-10-23T03:07:33.152Z,96.59
2023-10-23T03:08:33.138Z,96.59
2023-10-23T03:09:33.173Z,96.59
2023-10-23T03:10:33.146Z,96.59
2023-10-23T03:11:33.122Z,96.49
2023-10-23T03:12:33.106Z,96.59
2023-10-23T03:13:33.083Z,96.55
2023-10-23T03:14:33.077Z,96.45
2023-10-23T03:15:33.111Z,96.04
2023-10-23T03:16:33.119Z,96.45
2023-10-23T03:17:33.047Z,96.25
2023-10-23T03:18:33.069Z,96.45
2023-10-23T03:19:33.026Z,97.16
2023-10-23T03:20:33.017Z,96.55
2023-10-23T03:21:33.007Z,97.16
2023-10-23T03:22:32.982Z,97.16
2023-10-23T03:23:32.969Z,97.16
2023-10-23T03:24:32.972Z,96.81
2023-10-23T03:25:32.954Z,96.92
2023-10-23T03:26:32.951Z,97.02
2023-10-23T03:27:32.958Z,96.81
2023-10-23T03:28:32.910Z,97.02
2023-10-23T03:29:32.903Z,97.12
2023-10-23T03:30:32.956Z,96.92
2023-10-23T03:31:32.903Z,97.02
2023-10-23T03:32:32.886Z,97.12
2023-10-23T03:33:32.928Z,97.02
2023-10-23T03:34:32.850Z,97.12
2023-10-23T03:35:32.824Z,96.92
2023-10-23T03:36:32.838Z,97.02
2023-10-23T03:37:32.801Z,97.12
2023-10-23T03:38:32.803Z,97.02
2023-10-23T03:39:32.834Z,96.87
2023-10-23T03:40:32.774Z,97.12
2023-10-23T03:41:32.761Z,97.12
2023-10-23T03:42:32.851Z,97.02
2023-10-23T03:43:33.061Z,97.08
2023-10-23T03:44:32.721Z,97.08
2023-10-23T03:45:32.779Z,96.92
2023-10-23T03:46:32.746Z,97.08
2023-10-23T03:47:32.746Z,96.87
2023-10-23T03:48:33.050Z,97.02
2023-10-23T03:49:32.728Z,97.12
2023-10-23T03:50:32.659Z,97.02
2023-10-23T03:51:32.672Z,96.92
2023-10-23T03:52:33.219Z,97.12
2023-10-23T03:53:32.981Z,97.12
2023-10-23T03:54:32.664Z,97.12
2023-10-23T03:55:32.680Z,97.02
2023-10-23T03:56:32.588Z,96.87
2023-10-23T03:57:33.043Z,96.77
2023-10-23T03:58:32.585Z,96.81
2023-10-23T03:59:32.548Z,96.81
2023-10-23T04:00:32.628Z,96.97
2023-10-23T04:01:32.606Z,96.81
2023-10-23T04:02:32.611Z,96.81
2023-10-23T04:03:32.615Z,97.12
2023-10-23T04:04:33.290Z,97.08
2023-10-23T04:05:32.495Z,97.12
2023-10-23T04:06:32.571Z,96.87
2023-10-23T04:07:32.469Z,97.08
2023-10-23T04:08:32.452Z,97.02
2023-10-23T04:09:32.461Z,97.08
2023-10-23T04:10:32.448Z,96.87
2023-10-23T04:11:32.432Z,96.77
2023-10-23T04:12:32.408Z,96.46
2023-10-23T04:13:32.398Z,96.67
2023-10-23T04:14:32.401Z,96.36
2023-10-23T04:15:32.418Z,96.36
2023-10-23T04:16:32.394Z,96.46
2023-10-23T04:17:32.417Z,96.36
2023-10-23T04:18:32.375Z,96.36
2023-10-23T04:19:32.324Z,95.95
2023-10-23T04:20:32.353Z,95.95
2023-10-23T04:21:32.330Z,96.26
2023-10-23T04:22:32.299Z,95.95
2023-10-23T04:23:32.288Z,95.95
2023-10-23T04:24:32.312Z,96.26
2023-10-23T04:25:32.284Z,96.15
2023-10-23T04:26:32.251Z,96.15
2023-10-23T04:27:32.253Z,96.46
2023-10-23T04:28:32.231Z,96.15
2023-10-23T04:29:32.340Z,96.15
2023-10-23T04:30:32.287Z,96.15
2023-10-23T04:31:32.221Z,96.15
2023-10-23T04:32:32.202Z,96.15
2023-10-23T04:33:32.227Z,96.15
2023-10-23T04:34:32.180Z,96.15
2023-10-23T04:35:32.168Z,96.36
2023-10-23T04:36:32.216Z,96.15
2023-10-23T04:37:32.133Z,96.67
2023-10-23T04:38:32.119Z,96.67
2023-10-23T04:39:32.158Z,96.36
2023-10-23T04:40:32.111Z,96.46
2023-10-23T04:41:32.096Z,96.46
2023-10-23T04:42:32.095Z,96.46
2023-10-23T04:43:32.081Z,96.36
2023-10-23T04:44:32.067Z,96.46
2023-10-23T04:45:32.081Z,96.56
2023-10-23T04:46:32.128Z,96.46
2023-10-23T04:47:32.060Z,96.46
2023-10-23T04:48:32.079Z,96.46
2023-10-23T04:49:32.006Z,96.46
2023-10-23T04:50:31.992Z,96.36
2023-10-23T04:51:32.005Z,96.46
2023-10-23T04:52:31.973Z,96.46
2023-10-23T04:53:31.971Z,96.46
2023-10-23T04:54:31.961Z,96.46
2023-10-23T04:55:31.936Z,96.46
2023-10-23T04:56:31.928Z,96.46
2023-10-23T04:57:32.010Z,96.26
2023-10-23T04:58:31.983Z,96.26
2023-10-23T04:59:31.889Z,96.56
2023-10-23T05:00:31.909Z,96.56
2023-10-23T05:01:31.952Z,96.46
2023-10-23T05:02:31.926Z,96.36
2023-10-23T05:03:31.896Z,96.46
2023-10-23T05:04:31.906Z,96.46
2023-10-23T05:05:31.832Z,96.56
2023-10-23T05:06:31.837Z,96.67
2023-10-23T05:07:31.826Z,96.46
2023-10-23T05:08:31.796Z,96.56
2023-10-23T05:09:31.831Z,96.56
2023-10-23T05:10:31.786Z,96.46
2023-10-23T05:11:31.766Z,96.46
2023-10-23T05:12:31.789Z,96.36
2023-10-23T05:13:31.729Z,96.36
2023-10-23T05:14:31.729Z,95.85
2023-10-23T05:15:31.737Z,96.36
2023-10-23T05:16:31.750Z,96.46
2023-10-23T05:17:31.793Z,96.56
2023-10-23T05:18:31.722Z,96.56
2023-10-23T05:19:31.668Z,96.56
2023-10-23T05:20:31.678Z,96.36
2023-10-23T05:21:31.667Z,96.36
2023-10-23T05:22:31.633Z,96.56
2023-10-23T05:23:31.622Z,96.46
2023-10-23T05:24:31.648Z,96.56
2023-10-23T05:25:31.620Z,96.46
2023-10-23T05:26:31.590Z,96.46
2023-10-23T05:27:31.625Z,96.77
2023-10-23T05:28:31.561Z,96.46
2023-10-23T05:29:31.562Z,96.56
2023-10-23T05:30:31.570Z,96.36
2023-10-23T05:31:31.680Z,96.46
2023-10-23T05:32:31.534Z,96.46
2023-10-23T05:33:31.528Z,96.46
2023-10-23T05:34:31.519Z,96.56
2023-10-23T05:35:31.496Z,96.56
2023-10-23T05:36:31.534Z,96.26
2023-10-23T05:37:31.461Z,96.46
2023-10-23T05:38:31.444Z,96.46
2023-10-23T05:39:31.488Z,96.67
2023-10-23T05:40:31.428Z,96.46
2023-10-23T05:41:31.406Z,96.46
2023-10-23T05:42:31.470Z,96.36
2023-10-23T05:43:31.384Z,96.15
2023-10-23T05:44:31.391Z,96.36
2023-10-23T05:45:31.530Z,96.15
2023-10-23T05:46:31.452Z,96.15
2023-10-23T05:47:31.457Z,96.30
2023-10-23T05:48:31.366Z,96.36
2023-10-23T05:49:31.332Z,96.36
2023-10-23T05:50:31.320Z,96.15
2023-10-23T05:51:31.312Z,96.15
2023-10-23T05:52:31.279Z,96.36
2023-10-23T05:53:31.292Z,96.51
2023-10-23T05:54:31.321Z,96.15
2023-10-23T05:55:31.252Z,96.41
2023-10-23T05:56:31.236Z,96.30
2023-10-23T05:57:31.350Z,96.30
2023-10-23T05:58:31.226Z,96.26
2023-10-23T05:59:31.202Z,95.95
2023-10-23T06:00:31.208Z,96.10
2023-10-23T06:01:31.197Z,96.05
2023-10-23T06:02:31.241Z,96.41
2023-10-23T06:03:31.265Z,96.30
2023-10-23T06:04:31.258Z,96.51
2023-10-23T06:05:31.138Z,96.51
2023-10-23T06:06:31.321Z,96.51
2023-10-23T06:07:31.380Z,96.51
2023-10-23T06:08:31.118Z,96.41
2023-10-23T06:09:31.107Z,96.15
2023-10-23T06:10:31.075Z,96.51
2023-10-23T06:11:31.071Z,97.02
2023-10-23T06:12:31.086Z,96.51
2023-10-23T06:13:31.051Z,97.08
2023-10-23T06:14:31.028Z,97.02
2023-10-23T06:15:31.068Z,96.77
2023-10-23T06:16:31.094Z,96.77
2023-10-23T06:17:31.031Z,96.77
2023-10-23T06:18:31.015Z,96.77
2023-10-23T06:19:30.974Z,96.87
2023-10-23T06:20:30.957Z,96.77
2023-10-23T06:21:30.967Z,96.97
2023-10-23T06:22:30.979Z,96.77
2023-10-23T06:23:30.930Z,97.08
2023-10-23T06:24:30.923Z,96.97
2023-10-23T06:25:30.912Z,96.97
2023-10-23T06:26:30.899Z,96.97
2023-10-23T06:27:30.902Z,96.97
2023-10-23T06:28:30.871Z,96.77
2023-10-23T06:29:30.859Z,96.77
2023-10-23T06:30:30.859Z,96.87
2023-10-23T06:31:30.913Z,97.08
2023-10-23T06:32:30.842Z,97.17
2023-10-23T06:33:30.841Z,97.17
2023-10-23T06:34:30.790Z,97.03
2023-10-23T06:35:30.793Z,97.08
2023-10-23T06:36:30.819Z,97.08
2023-10-23T06:37:30.756Z,96.77
2023-10-23T06:38:30.814Z,97.13
2023-10-23T06:39:30.733Z,96.77
2023-10-23T06:40:30.729Z,97.08
2023-10-23T06:41:30.715Z,97.03
2023-10-23T06:42:30.701Z,97.03
2023-10-23T06:43:30.686Z,97.03
2023-10-23T06:44:30.671Z,96.42
2023-10-23T06:45:42.523Z,96.92
2023-10-23T06:46:31.695Z,96.31
2023-10-23T06:47:30.635Z,96.72
2023-10-23T06:48:30.754Z,96.31
2023-10-23T06:49:30.627Z,96.51
2023-10-23T06:50:30.607Z,96.31
2023-10-23T06:51:30.588Z,96.31
2023-10-23T06:52:30.588Z,96.51
2023-10-23T06:53:30.563Z,96.42
2023-10-23T06:54:30.574Z,96.21
2023-10-23T06:55:30.555Z,96.42
2023-10-23T06:56:30.531Z,96.31
2023-10-23T06:57:30.520Z,96.01
2023-10-23T06:58:30.510Z,96.27
2023-10-23T06:59:30.517Z,95.86
2023-10-23T07:00:30.477Z,96.06
2023-10-23T07:01:44.020Z,96.37
2023-10-23T07:02:31.515Z,96.17
2023-10-23T07:03:30.558Z,96.06
2023-10-23T07:04:30.496Z,96.37
2023-10-23T07:05:30.767Z,96.37
2023-10-23T07:06:30.430Z,96.37
2023-10-23T07:07:30.866Z,96.27
2023-10-23T07:08:30.415Z,96.17
2023-10-23T07:09:30.391Z,96.47
2023-10-23T07:10:30.399Z,96.47
2023-10-23T07:11:30.372Z,96.47
2023-10-23T07:12:30.393Z,96.27
2023-10-23T07:13:30.361Z,96.42
2023-10-23T07:14:30.341Z,96.42
2023-10-23T07:15:30.377Z,96.42
2023-10-23T07:16:30.456Z,96.42
2023-10-23T07:17:30.443Z,96.42
2023-10-23T07:18:30.430Z,96.42
2023-10-23T07:19:30.289Z,96.31
2023-10-23T07:20:30.274Z,96.42
2023-10-23T07:21:30.269Z,96.42
2023-10-23T07:22:30.273Z,96.42
2023-10-23T07:23:30.249Z,96.31
2023-10-23T07:24:30.232Z,96.42
2023-10-23T07:25:30.220Z,96.42
2023-10-23T07:26:30.342Z,96.21
2023-10-23T07:27:31.414Z,96.21
2023-10-23T07:28:30.179Z,96.21
2023-10-23T07:29:30.174Z,96.42
2023-10-23T07:30:30.240Z,96.42
2023-10-23T07:31:30.249Z,96.17
2023-10-23T07:32:30.174Z,96.17
2023-10-23T07:33:30.129Z,96.37
2023-10-23T07:34:30.130Z,96.37
2023-10-23T07:35:36.904Z,96.37
2023-10-23T07:36:31.111Z,96.37
2023-10-23T07:37:30.079Z,96.12
2023-10-23T07:38:30.064Z,96.12
2023-10-23T07:39:30.060Z,96.12
2023-10-23T07:40:30.041Z,95.65
2023-10-23T07:41:30.047Z,95.61
2023-10-23T07:42:30.031Z,95.61
2023-10-23T07:43:29.999Z,95.92
2023-10-23T07:44:30.012Z,95.72
2023-10-23T07:45:30.024Z,95.72
2023-10-23T07:46:30.027Z,95.72
2023-10-23T07:47:29.975Z,95.00
2023-10-23T07:48:29.966Z,95.20
2023-10-23T07:49:29.942Z,94.79
2023-10-23T07:50:29.926Z,95.10
2023-10-23T07:51:29.903Z,95.16
2023-10-23T07:52:29.892Z,94.95
2023-10-23T07:53:29.885Z,95.26
2023-10-23T07:54:29.878Z,94.45
2023-10-23T07:55:29.899Z,93.84
2023-10-23T07:56:29.854Z,94.04
2023-10-23T07:57:29.837Z,93.73
2023-10-23T07:58:29.838Z,93.69
2023-10-23T07:59:29.833Z,93.69
2023-10-23T08:00:29.810Z,93.99
2023-10-23T08:01:29.904Z,93.28
2023-10-23T08:02:29.888Z,92.83
2023-10-23T08:03:29.890Z,92.87
2023-10-23T08:04:29.834Z,92.83
2023-10-23T08:05:29.744Z,93.40
2023-10-23T08:06:29.727Z,93.29
2023-10-23T08:07:29.717Z,92.84
2023-10-23T08:08:29.706Z,92.79
2023-10-23T08:09:29.718Z,92.64
2023-10-23T08:10:29.685Z,93.09
2023-10-23T08:11:29.673Z,93.35
2023-10-23T08:12:29.663Z,92.23
2023-10-23T08:13:29.661Z,92.44
2023-10-23T08:14:29.666Z,92.33
2023-10-23T08:15:29.663Z,92.23
2023-10-23T08:16:29.711Z,92.29
2023-10-23T08:18:37.308Z,92.29
2023-10-23T08:19:30.749Z,92.09
2023-10-23T08:20:29.580Z,91.38
2023-10-23T08:21:29.570Z,91.58
2023-10-23T08:22:29.567Z,92.09
2023-10-23T08:23:29.550Z,91.38
2023-10-23T08:24:29.528Z,91.38
2023-10-23T08:25:29.578Z,91.74
2023-10-23T08:26:29.504Z,91.07
2023-10-23T08:27:29.880Z,91.33
2023-10-23T08:28:38.221Z,90.36
2023-10-23T08:29:30.477Z,90.62
2023-10-23T08:30:29.483Z,90.52
2023-10-23T08:31:39.349Z,90.62
2023-10-23T08:32:41.481Z,90.17
2023-10-23T08:33:30.497Z,91.19
2023-10-23T08:34:29.508Z,90.48
2023-10-23T08:35:29.428Z,90.53
2023-10-23T08:36:29.813Z,89.83
2023-10-23T08:37:29.447Z,89.72
2023-10-23T08:38:29.374Z,89.92
2023-10-23T08:39:29.356Z,90.09
2023-10-23T08:40:29.360Z,90.19
2023-10-23T08:41:29.364Z,89.68
2023-10-23T08:42:29.325Z,89.33
2023-10-23T08:43:29.309Z,88.62
2023-10-23T08:44:29.302Z,88.56
2023-10-23T08:45:29.296Z,88.06
2023-10-23T08:46:29.383Z,87.45
2023-10-23T08:47:29.308Z,87.55
2023-10-23T08:48:29.253Z,87.92
2023-10-23T08:49:29.318Z,87.40
2023-10-23T08:50:29.252Z,87.26
2023-10-23T08:51:29.246Z,87.37
2023-10-23T08:52:29.213Z,87.77
2023-10-23T08:53:29.198Z,86.65
2023-10-23T08:54:29.202Z,86.76
2023-10-23T08:55:29.191Z,85.33
2023-10-23T08:56:29.166Z,85.44
2023-10-23T08:57:29.153Z,85.68
2023-10-23T08:58:29.146Z,86.19
2023-10-23T08:59:29.134Z,87.00
2023-10-23T09:00:29.152Z,87.46
2023-10-23T09:01:29.318Z,87.46
2023-10-23T09:02:29.167Z,87.97
2023-10-23T09:04:02.547Z,87.87
2023-10-23T09:04:29.245Z,87.87
2023-10-23T09:05:29.173Z,87.67
2023-10-23T09:06:29.053Z,87.77
2023-10-23T09:07:29.045Z,87.06
2023-10-23T09:08:29.034Z,86.91
2023-10-23T09:09:29.032Z,87.16
2023-10-23T09:10:29.048Z,87.43
2023-10-23T09:11:29.007Z,87.12
2023-10-23T09:12:28.987Z,87.12
2023-10-23T09:13:28.980Z,86.41
2023-10-23T09:14:28.995Z,86.91
2023-10-23T09:15:28.964Z,86.76
2023-10-23T09:16:29.012Z,86.45
2023-10-23T09:17:28.947Z,86.25
2023-10-23T09:18:28.958Z,86.55
2023-10-23T09:19:28.925Z,86.45
2023-10-23T09:20:29.095Z,86.35
2023-10-23T09:21:29.094Z,86.15
2023-10-23T09:22:28.942Z,86.10
2023-10-23T09:23:28.872Z,86.07
2023-10-23T09:24:28.849Z,86.37
2023-10-23T09:25:28.876Z,85.11
2023-10-23T09:26:28.825Z,85.21
2023-10-23T09:27:28.813Z,84.47
2023-10-23T09:28:28.819Z,84.22
2023-10-23T09:29:28.833Z,83.17
2023-10-23T09:30:28.785Z,83.17
2023-10-23T09:31:28.892Z,83.44
2023-10-23T09:32:28.783Z,82.83
2023-10-23T09:33:28.757Z,81.92
2023-10-23T09:34:28.763Z,82.62
2023-10-23T09:35:28.723Z,82.32
2023-10-23T09:36:28.716Z,79.63
2023-10-23T09:37:28.811Z,81.15
2023-10-23T09:38:28.693Z,81.29
2023-10-23T09:39:28.689Z,81.73
2023-10-23T09:40:28.692Z,82.34
2023-10-23T09:41:28.662Z,83.04
2023-10-23T09:42:29.209Z,82.84
2023-10-23T09:43:28.687Z,82.98
2023-10-23T09:44:28.629Z,82.98
2023-10-23T09:45:28.611Z,83.39
2023-10-23T09:46:28.728Z,84.30
2023-10-23T09:47:28.623Z,83.49
2023-10-23T09:48:28.576Z,83.45
2023-10-23T09:49:28.717Z,84.06
2023-10-23T09:50:28.817Z,84.16
2023-10-23T09:51:28.560Z,83.92
2023-10-23T09:52:28.538Z,82.60
2023-10-23T09:53:28.521Z,83.15
2023-10-23T09:54:28.517Z,83.01
2023-10-23T09:55:28.544Z,83.61
2023-10-23T09:56:28.498Z,83.82
2023-10-23T09:57:28.482Z,84.02
2023-10-23T09:58:28.470Z,84.22
2023-10-23T09:59:28.575Z,83.55
2023-10-23T10:00:28.461Z,83.65
2023-10-23T10:01:28.495Z,84.06
2023-10-23T10:02:28.432Z,84.06
2023-10-23T10:03:28.672Z,84.22
2023-10-23T10:04:28.421Z,83.86
2023-10-23T10:05:28.401Z,84.36
2023-10-23T10:06:28.420Z,83.96
2023-10-23T10:07:28.414Z,84.10
2023-10-23T10:08:28.363Z,84.30
2023-10-23T10:09:28.349Z,84.61
2023-10-23T10:10:28.407Z,85.42
2023-10-23T10:11:28.378Z,84.56
2023-10-23T10:12:29.148Z,83.15
2023-10-23T10:13:28.302Z,82.90
2023-10-23T10:14:28.311Z,82.36
2023-10-23T10:15:28.318Z,82.67
2023-10-23T10:16:28.320Z,83.13
2023-10-23T10:17:28.300Z,82.18
2023-10-23T10:18:28.245Z,82.53
2023-10-23T10:19:28.331Z,81.92
2023-10-23T10:20:28.221Z,82.62
2023-10-23T10:21:28.204Z,81.65
2023-10-23T10:22:28.237Z,81.79
2023-10-23T10:23:28.191Z,83.41
2023-10-23T10:24:28.186Z,82.95
2023-10-23T10:25:28.211Z,83.45
2023-10-23T10:26:28.161Z,83.61
2023-10-23T10:27:28.166Z,83.35
2023-10-23T10:28:28.183Z,83.41
2023-10-23T10:29:28.136Z,83.47
2023-10-23T10:30:28.109Z,82.12
2023-10-23T10:31:28.194Z,81.68
2023-10-23T10:32:28.101Z,81.54
2023-10-23T10:34:24.835Z,80.43
2023-10-23T10:34:31.437Z,80.49
2023-10-23T10:35:41.454Z,79.08
2023-10-23T10:36:47.470Z,78.74
2023-10-23T10:37:29.211Z,78.94
2023-10-23T10:38:28.489Z,79.91
2023-10-23T10:39:28.009Z,80.01
2023-10-23T10:40:27.996Z,78.16
2023-10-23T10:41:27.989Z,78.26
2023-10-23T10:42:27.984Z,78.30
2023-10-23T10:43:27.971Z,77.89
2023-10-23T10:44:27.948Z,77.49
2023-10-23T10:45:27.937Z,76.92
2023-10-23T10:46:28.017Z,78.13
2023-10-23T10:47:28.013Z,77.62
2023-10-23T10:48:27.901Z,78.13
2023-10-23T10:49:27.961Z,78.43
2023-10-23T10:50:27.883Z,78.80
2023-10-23T10:51:27.883Z,77.66
2023-10-23T10:52:29.562Z,79.44
2023-10-23T10:53:27.844Z,78.94
2023-10-23T10:54:27.855Z,78.63
2023-10-23T10:55:27.871Z,78.67
2023-10-23T10:56:27.822Z,78.41
2023-10-23T10:57:27.808Z,78.81
2023-10-23T10:58:27.837Z,80.16
2023-10-23T10:59:27.797Z,80.10
2023-10-23T11:00:27.797Z,81.71
2023-10-23T11:01:27.846Z,81.65
2023-10-23T11:02:27.781Z,81.76
2023-10-23T11:03:28.747Z,81.59
2023-10-23T11:04:27.782Z,82.24
2023-10-23T11:05:27.725Z,82.84
2023-10-23T11:06:27.710Z,83.04
2023-10-23T11:07:27.692Z,83.41
2023-10-23T11:08:27.681Z,83.31
2023-10-23T11:09:27.673Z,83.17
2023-10-23T11:10:27.788Z,83.17
2023-10-23T11:11:27.663Z,82.62
2023-10-23T11:12:27.631Z,81.11
2023-10-23T11:13:27.647Z,81.62
2023-10-23T11:14:27.605Z,80.26
2023-10-23T11:15:27.615Z,81.44
2023-10-23T11:16:27.672Z,79.17
2023-10-23T11:17:27.642Z,78.57
2023-10-23T11:18:27.565Z,77.69
2023-10-23T11:19:27.612Z,77.32
2023-10-23T11:20:27.660Z,77.02
2023-10-23T11:21:27.552Z,77.39
2023-10-23T11:22:27.581Z,76.98
2023-10-23T11:23:27.505Z,76.98
2023-10-23T11:24:27.512Z,76.07
2023-10-23T11:25:27.542Z,76.78
2023-10-23T11:26:27.583Z,77.04
2023-10-23T11:27:27.464Z,76.18
2023-10-23T11:28:27.502Z,77.19
2023-10-23T11:29:27.449Z,76.98
2023-10-23T11:30:27.428Z,75.98
2023-10-23T11:31:27.525Z,76.07
2023-10-23T11:32:27.478Z,76.04
2023-10-23T11:33:27.406Z,75.63
2023-10-23T11:34:27.457Z,77.31
2023-10-23T11:35:27.375Z,77.31
2023-10-23T11:36:27.358Z,77.04
2023-10-23T11:37:27.386Z,76.04
2023-10-23T11:38:27.363Z,74.66
2023-10-23T11:39:27.343Z,76.07
2023-10-23T11:40:27.363Z,75.87
2023-10-23T11:41:27.305Z,75.71
2023-10-23T11:42:27.320Z,76.95
2023-10-23T11:43:27.329Z,78.10
2023-10-23T11:44:27.268Z,77.70
2023-10-23T11:45:27.261Z,77.84
2023-10-23T11:46:27.331Z,78.28
2023-10-23T11:47:27.276Z,78.88
2023-10-23T11:48:27.258Z,78.78
2023-10-23T11:49:27.242Z,79.39
2023-10-23T11:50:27.220Z,80.20
2023-10-23T11:51:27.231Z,80.57
2023-10-23T11:52:27.219Z,78.91
2023-10-23T11:53:27.169Z,79.11
2023-10-23T11:54:27.158Z,78.27
2023-10-23T11:55:27.231Z,76.95
2023-10-23T11:56:27.202Z,76.72
2023-10-23T11:57:27.141Z,77.62
2023-10-23T11:58:27.189Z,76.82
2023-10-23T11:59:27.472Z,77.02
2023-10-23T12:00:27.153Z,75.20
2023-10-23T12:01:27.186Z,75.44
2023-10-23T12:02:27.087Z,76.18
2023-10-23T12:03:27.053Z,76.18
2023-10-23T12:04:27.159Z,76.59
2023-10-23T12:05:27.034Z,76.08
2023-10-23T12:06:27.044Z,75.78
2023-10-23T12:07:27.031Z,76.08
2023-10-23T12:08:26.995Z,76.99
2023-10-23T12:09:26.985Z,77.06
2023-10-23T12:10:27.085Z,78.06
2023-10-23T12:11:27.001Z,77.86
2023-10-23T12:12:26.954Z,77.22
2023-10-23T12:13:26.979Z,75.51
2023-10-23T12:14:26.988Z,75.24
2023-10-23T12:15:26.930Z,75.04
2023-10-23T12:16:27.742Z,76.04
2023-10-23T12:17:27.192Z,76.04
2023-10-23T12:18:26.888Z,76.95
2023-10-23T12:19:26.894Z,77.06
2023-10-23T12:20:26.874Z,77.12
2023-10-23T12:21:26.864Z,75.40
2023-10-23T12:22:26.904Z,75.13
2023-10-23T12:23:26.830Z,74.73
2023-10-23T12:24:26.821Z,76.04
2023-10-23T12:25:26.859Z,77.15
2023-10-23T12:26:26.830Z,76.28
2023-10-23T12:27:26.790Z,77.09
2023-10-23T12:28:26.834Z,76.04
2023-10-23T12:29:26.779Z,77.06
2023-10-23T12:30:32.564Z,76.86
2023-10-23T12:31:27.878Z,75.95
2023-10-23T12:33:17.500Z,75.54
2023-10-23T12:33:35.535Z,75.44
2023-10-23T12:34:27.944Z,76.15
2023-10-23T12:35:26.802Z,75.17
2023-10-23T12:36:26.682Z,74.97
2023-10-23T12:37:26.740Z,74.73
2023-10-23T12:38:26.658Z,75.24
2023-10-23T12:39:26.700Z,75.04
2023-10-23T12:40:30.308Z,76.15
2023-10-23T12:41:27.638Z,76.25
2023-10-23T12:42:26.644Z,76.25
2023-10-23T12:43:26.660Z,76.21
2023-10-23T12:44:26.650Z,75.44
2023-10-23T12:45:26.582Z,75.91
2023-10-23T12:46:26.671Z,76.21
2023-10-23T12:47:26.664Z,73.42
2023-10-23T12:48:26.561Z,73.62
2023-10-23T12:49:26.583Z,75.24
2023-10-23T12:50:26.531Z,74.13
2023-10-23T12:51:26.513Z,74.13
2023-10-23T12:52:26.568Z,73.62
2023-10-23T12:53:26.532Z,73.52